CheckWX is a tool to help pilots better visualize weather data.  It is not intended as a substitute for an official pre-flight weather briefing.

00:31:48 UTC

KLLQ TAF
Monticello Municipal / Ellis Field Airport
Monticello, Arkansas, USA
KLLQ 192320Z 2000/2024 VRB06KT P6SM SCT080 FM201500 31008G16KT P6SM FEW250

Apr-20@
00:00 UTC

Apr-20 @ 00:00 UTC

Apr-20@
15:00 UTC

Apr-20 @ 15:00 UTC

KLLQ 192320Z 2000/2024 VRB06KT P6SM SCT080
Wind
  • Variable at 6 KTS
Cloud Levels
  • Scattered at 8,000' AGL

Apr-20@
15:00 UTC

Apr-20 @ 15:00 UTC

Apr-21@
00:00 UTC

Apr-21 @ 00:00 UTC

FM201500 31008G16KT P6SM FEW250

From

From Standard forecast or significant change

Wind
  • 310° at 8 KTS
  • {Gusting to 16 KTS
Cloud Levels
  • Few at 25,000' AGL